Time;durP1;ratioP1;P1;durP2;ratioP2;P2;SDS_P1;SDS_P2;PMS_P1;PMS_P2;Temp;Humidity;BMP_temperature;BMP_pressure;BME280_temperature;BME280_humidity;BME280_pressure;Samples;Min_cycle;Max_cycle;Signal;HPM_P1;HPM_P2
2023/04/20 00:01:53;;;;;;;2.67;2.08;;;19.20;57.60;;;;;;5017357;28;20072;-51
2023/04/20 00:04:19;;;;;;;3.10;2.25;;;19.20;57.60;;;;;;5017170;28;20053;-48
2023/04/20 00:06:44;;;;;;;2.20;2.00;;;19.20;57.60;;;;;;5030694;28;20018;-51
2023/04/20 00:09:14;;;;;;;3.05;2.20;;;19.20;57.70;;;;;;5012356;28;20053;-50
2023/04/20 00:11:39;;;;;;;3.53;1.98;;;19.10;57.60;;;;;;5013911;28;20509;-51
2023/04/20 00:14:05;;;;;;;2.70;2.13;;;19.10;57.60;;;;;;5009550;28;20030;-50
2023/04/20 00:16:31;;;;;;;3.17;2.42;;;19.10;57.60;;;;;;5017528;23;20503;-53
2023/04/20 00:18:59;;;;;;;2.78;2.40;;;19.10;57.60;;;;;;5019875;28;20032;-53
2023/04/20 00:21:24;;;;;;;2.40;2.20;;;19.10;57.60;;;;;;5020182;28;20121;-50
2023/04/20 00:23:50;;;;;;;3.78;2.67;;;19.10;57.60;;;;;;5007573;28;20121;-51
2023/04/20 00:26:17;;;;;;;1.90;1.70;;;19.10;57.60;;;;;;5010673;28;20383;-51
2023/04/20 00:28:42;;;;;;;3.03;2.05;;;19.10;57.60;;;;;;5012817;28;20394;-50
2023/04/20 00:31:08;;;;;;;2.55;2.35;;;19.10;57.60;;;;;;5012144;28;20030;-53
2023/04/20 00:33:34;;;;;;;2.72;2.38;;;19.10;57.60;;;;;;5013343;28;20030;-51
2023/04/20 00:35:59;;;;;;;2.05;1.90;;;19.10;57.60;;;;;;5014769;28;20029;-52
2023/04/20 00:38:26;;;;;;;3.10;2.30;;;19.10;57.60;;;;;;5011656;28;20033;-51
2023/04/20 00:40:53;;;;;;;2.85;1.92;;;19.10;57.60;;;;;;5017560;28;20038;-49
2023/04/20 00:43:20;;;;;;;2.25;1.98;;;19.10;57.60;;;;;;5015987;28;20037;-52
2023/04/20 00:45:46;;;;;;;3.15;2.28;;;19.10;57.60;;;;;;5015868;28;20037;-53
2023/04/20 00:48:12;;;;;;;2.55;2.35;;;19.00;57.60;;;;;;5009165;28;20040;-49
2023/04/20 00:50:38;;;;;;;2.05;1.85;;;19.00;57.60;;;;;;5009656;28;20026;-54
2023/04/20 00:53:05;;;;;;;3.03;2.33;;;19.00;57.60;;;;;;5014807;28;20018;-49
2023/04/20 00:55:31;;;;;;;2.08;1.88;;;19.00;57.60;;;;;;5014230;28;20029;-49
2023/04/20 00:57:57;;;;;;;2.05;1.90;;;19.00;57.60;;;;;;5012008;28;20051;-52
2023/04/20 01:00:23;;;;;;;2.45;2.05;;;19.00;57.60;;;;;;5009020;28;20037;-50
2023/04/20 01:02:48;;;;;;;2.17;1.98;;;19.00;57.70;;;;;;5013222;28;20393;-54
2023/04/20 01:05:14;;;;;;;2.42;1.85;;;19.00;57.70;;;;;;5011860;28;20040;-53
2023/04/20 01:07:40;;;;;;;2.97;1.90;;;19.00;57.60;;;;;;5011448;28;20045;-56
2023/04/20 01:10:06;;;;;;;2.92;2.20;;;19.00;57.70;;;;;;5012320;28;20026;-47
2023/04/20 01:12:32;;;;;;;3.53;2.10;;;19.00;57.70;;;;;;5013171;28;20565;-52
2023/04/20 01:14:57;;;;;;;2.88;2.28;;;19.00;57.70;;;;;;5014347;28;20033;-50
2023/04/20 01:17:23;;;;;;;3.42;2.25;;;19.00;57.70;;;;;;5011393;28;20092;-53
2023/04/20 01:19:49;;;;;;;2.78;1.90;;;19.00;57.70;;;;;;5012523;28;20022;-52
2023/04/20 01:22:19;;;;;;;4.15;2.05;;;19.00;57.80;;;;;;5013631;28;20506;-51
2023/04/20 01:24:45;;;;;;;2.10;1.80;;;19.00;57.80;;;;;;5011226;28;20064;-49
2023/04/20 01:27:12;;;;;;;3.03;1.88;;;19.00;57.80;;;;;;5012226;28;20346;-52
2023/04/20 01:29:38;;;;;;;2.75;2.20;;;18.90;57.70;;;;;;5013473;28;20039;-49
2023/04/20 01:32:04;;;;;;;2.67;2.08;;;19.00;57.80;;;;;;5020231;28;20026;-49
2023/04/20 01:34:29;;;;;;;5.05;2.08;;;18.90;57.70;;;;;;5011244;28;20070;-52
2023/04/20 01:36:55;;;;;;;2.83;2.53;;;18.90;57.70;;;;;;5012070;28;20033;-52
2023/04/20 01:39:20;;;;;;;2.90;2.22;;;18.90;57.70;;;;;;5010435;28;20049;-55
2023/04/20 01:41:46;;;;;;;2.50;1.90;;;18.90;57.70;;;;;;5016737;28;20034;-52
2023/04/20 01:44:11;;;;;;;4.10;2.00;;;18.90;57.70;;;;;;5015903;28;20033;-50
2023/04/20 01:46:38;;;;;;;2.70;2.35;;;18.90;57.70;;;;;;5022060;28;20040;-53
2023/04/20 01:49:04;;;;;;;3.60;2.20;;;18.90;57.80;;;;;;5013197;28;20581;-47
2023/04/20 01:51:32;;;;;;;2.75;2.08;;;18.90;57.80;;;;;;5010476;28;20124;-54
2023/04/20 01:53:58;;;;;;;3.17;2.28;;;18.90;57.70;;;;;;5014197;28;20113;-50
2023/04/20 01:56:24;;;;;;;3.13;1.90;;;18.90;57.80;;;;;;5010857;28;20026;-51
2023/04/20 01:58:49;;;;;;;2.13;1.92;;;18.90;57.80;;;;;;5012633;28;20379;-48
2023/04/20 02:01:15;;;;;;;2.20;2.00;;;18.90;57.70;;;;;;5013835;28;20609;-57
2023/04/20 02:03:41;;;;;;;3.67;2.28;;;18.90;57.70;;;;;;5012402;28;20398;-52
2023/04/20 02:06:06;;;;;;;3.72;1.90;;;18.90;57.70;;;;;;5012489;28;20135;-54
2023/04/20 02:08:32;;;;;;;1.65;1.52;;;18.90;57.70;;;;;;5014281;28;20072;-55
2023/04/20 02:10:58;;;;;;;3.63;2.10;;;18.90;57.80;;;;;;5018296;28;20033;-49
2023/04/20 02:13:23;;;;;;;2.53;2.33;;;18.90;57.80;;;;;;5016994;28;20398;-52
2023/04/20 02:15:49;;;;;;;3.00;2.05;;;18.90;57.90;;;;;;5017033;28;20161;-51
2023/04/20 02:18:17;;;;;;;4.65;2.00;;;18.90;57.90;;;;;;5015526;28;20046;-49
2023/04/20 02:20:44;;;;;;;2.58;2.10;;;18.80;57.90;;;;;;5010351;28;20076;-52
2023/04/20 02:23:10;;;;;;;3.10;1.80;;;18.80;57.90;;;;;;5018146;28;20033;-50
2023/04/20 02:25:35;;;;;;;2.33;2.13;;;18.80;58.00;;;;;;5015021;28;20418;-49
2023/04/20 02:28:01;;;;;;;2.47;2.28;;;18.80;58.00;;;;;;5015491;28;20037;-53
2023/04/20 02:30:26;;;;;;;2.50;1.88;;;18.80;58.00;;;;;;5016556;28;20038;-51
2023/04/20 02:32:52;;;;;;;2.30;1.90;;;18.70;58.00;;;;;;5015556;28;20037;-56
2023/04/20 02:35:18;;;;;;;2.97;2.22;;;18.70;58.10;;;;;;5013950;28;20308;-48
2023/04/20 02:37:44;;;;;;;3.42;1.75;;;18.70;58.10;;;;;;5015661;28;20466;-51
2023/04/20 02:40:09;;;;;;;2.30;2.10;;;18.70;58.20;;;;;;5016081;28;20030;-52
2023/04/20 02:42:35;;;;;;;4.05;2.50;;;18.70;58.20;;;;;;5015351;28;20021;-48
2023/04/20 02:45:01;;;;;;;4.40;2.03;;;18.70;58.20;;;;;;5016511;28;20033;-54
2023/04/20 02:47:26;;;;;;;3.35;2.05;;;18.70;58.30;;;;;;4995759;28;20195;-58
2023/04/20 02:49:52;;;;;;;2.20;1.90;;;18.70;58.30;;;;;;5013248;28;20044;-48
2023/04/20 02:52:17;;;;;;;2.05;1.77;;;18.70;58.30;;;;;;5014983;28;20037;-50
2023/04/20 02:54:43;;;;;;;2.75;2.00;;;18.70;58.30;;;;;;5012511;28;20426;-54
2023/04/20 02:57:10;;;;;;;1.98;1.77;;;18.70;58.30;;;;;;5011700;28;20029;-47
2023/04/20 02:59:36;;;;;;;2.03;1.83;;;18.70;58.30;;;;;;5011214;28;20029;-54
2023/04/20 03:02:01;;;;;;;1.98;1.63;;;18.70;58.30;;;;;;5016293;28;20025;-53
2023/04/20 03:04:27;;;;;;;2.45;1.90;;;18.70;59.00;;;;;;5012995;28;20038;-59
2023/04/20 03:06:53;;;;;;;2.40;2.00;;;18.70;58.40;;;;;;5013961;28;20044;-52
2023/04/20 03:09:19;;;;;;;3.60;1.80;;;18.70;58.30;;;;;;5014501;28;20033;-52
2023/04/20 03:11:44;;;;;;;4.15;1.83;;;18.70;58.30;;;;;;5016353;28;20529;-52
2023/04/20 03:14:10;;;;;;;3.08;2.22;;;18.70;58.30;;;;;;5013072;28;20045;-52
2023/04/20 03:16:36;;;;;;;4.53;2.25;;;18.70;58.30;;;;;;5017832;28;20038;-51
2023/04/20 03:19:02;;;;;;;2.25;2.05;;;18.70;58.10;;;;;;5018098;28;20056;-56
2023/04/20 03:21:27;;;;;;;3.42;1.90;;;18.80;58.10;;;;;;5018809;28;20126;-49
2023/04/20 03:23:53;;;;;;;2.63;1.55;;;18.80;58.10;;;;;;5011896;28;20112;-49
2023/04/20 03:26:19;;;;;;;2.90;1.60;;;18.80;57.90;;;;;;5017138;28;20036;-50
2023/04/20 03:28:44;;;;;;;1.92;1.75;;;18.90;57.80;;;;;;5011729;28;20533;-51
2023/04/20 03:31:10;;;;;;;4.50;2.03;;;18.90;57.60;;;;;;5013372;28;20036;-55
2023/04/20 03:33:36;;;;;;;2.25;1.67;;;19.00;57.50;;;;;;5014378;28;20029;-55
2023/04/20 03:36:01;;;;;;;4.22;2.08;;;19.10;57.30;;;;;;5014245;28;20037;-54
2023/04/20 03:38:27;;;;;;;2.35;1.75;;;19.10;57.20;;;;;;5014078;28;20120;-48
2023/04/20 03:40:52;;;;;;;2.13;1.92;;;19.20;57.00;;;;;;5020195;28;20300;-57
2023/04/20 03:43:18;;;;;;;2.20;2.00;;;19.20;56.90;;;;;;5013977;28;20485;-47
2023/04/20 03:45:43;;;;;;;3.17;1.90;;;19.20;56.80;;;;;;5020869;28;20486;-48
2023/04/20 03:48:09;;;;;;;2.70;1.52;;;19.30;56.80;;;;;;5010662;28;20044;-52
2023/04/20 03:50:35;;;;;;;2.92;1.60;;;19.30;56.70;;;;;;5014641;28;20083;-53
2023/04/20 03:53:00;;;;;;;1.83;1.70;;;19.30;56.80;;;;;;5013307;28;20076;-47
2023/04/20 03:55:25;;;;;;;4.82;1.70;;;19.40;56.60;;;;;;5011305;28;20063;-48
2023/04/20 03:57:52;;;;;;;1.90;1.55;;;19.40;56.50;;;;;;5011793;28;20040;-52
2023/04/20 04:00:18;;;;;;;2.75;1.50;;;19.40;56.50;;;;;;5014616;28;20025;-49
2023/04/20 04:02:43;;;;;;;2.05;1.70;;;19.40;56.40;;;;;;5013353;28;20475;-50
2023/04/20 04:05:09;;;;;;;1.90;1.70;;;19.40;56.50;;;;;;5010083;28;20034;-56
2023/04/20 04:07:34;;;;;;;1.65;1.55;;;19.40;56.50;;;;;;5012743;28;20033;-47
2023/04/20 04:10:02;;;;;;;3.25;1.90;;;19.40;56.40;;;;;;5016385;28;20495;-50
2023/04/20 04:12:27;;;;;;;4.20;1.63;;;19.40;56.50;;;;;;5013554;28;20030;-53
2023/04/20 04:14:53;;;;;;;2.25;1.70;;;19.40;56.50;;;;;;5027490;28;20029;-47
2023/04/20 04:17:18;;;;;;;2.17;1.83;;;19.40;56.30;;;;;;5010273;28;20104;-50
2023/04/20 04:19:44;;;;;;;1.50;1.40;;;19.40;56.30;;;;;;5014648;28;20087;-53
2023/04/20 04:22:09;;;;;;;2.63;1.75;;;19.40;56.30;;;;;;5012267;28;20057;-56
2023/04/20 04:24:37;;;;;;;3.85;2.00;;;19.40;56.30;;;;;;5010938;28;20363;-51
2023/04/20 04:27:04;;;;;;;2.65;1.70;;;19.40;56.30;;;;;;5010916;28;20214;-48
2023/04/20 04:29:29;;;;;;;2.17;1.92;;;19.40;56.40;;;;;;5009274;28;20053;-47
2023/04/20 04:31:55;;;;;;;2.72;1.70;;;19.40;56.50;;;;;;5011798;28;20029;-52
2023/04/20 04:34:22;;;;;;;4.43;2.05;;;19.50;56.50;;;;;;5011716;28;20028;-48
2023/04/20 04:36:48;;;;;;;3.65;2.25;;;19.40;56.30;;;;;;5012827;28;20549;-53
2023/04/20 04:39:14;;;;;;;4.20;2.42;;;19.40;56.40;;;;;;5019326;28;20057;-56
2023/04/20 04:41:40;;;;;;;4.00;2.30;;;19.40;56.50;;;;;;5011501;28;20089;-52
2023/04/20 04:44:05;;;;;;;3.33;2.95;;;19.40;56.50;;;;;;5012938;28;20057;-47
2023/04/20 04:46:31;;;;;;;11.90;5.72;;;19.50;56.60;;;;;;5011508;28;20483;-50
2023/04/20 04:48:59;;;;;;;15.60;8.90;;;19.50;56.60;;;;;;5012160;28;20049;-54
2023/04/20 04:51:25;;;;;;;21.73;10.40;;;19.50;56.80;;;;;;5014002;28;20434;-52
2023/04/20 04:53:51;;;;;;;29.30;12.93;;;19.50;56.90;;;;;;5012082;28;20033;-53
2023/04/20 04:56:17;;;;;;;29.80;13.45;;;19.40;57.10;;;;;;5010664;28;20028;-57
2023/04/20 04:58:44;;;;;;;31.85;15.52;;;19.40;57.30;;;;;;5010956;28;20151;-56
2023/04/20 05:01:10;;;;;;;26.83;15.30;;;19.40;57.40;;;;;;5011698;28;20065;-50
2023/04/20 05:03:35;;;;;;;31.17;16.95;;;19.40;57.60;;;;;;5012087;28;20030;-49
2023/04/20 05:06:01;;;;;;;32.50;16.50;;;19.40;57.70;;;;;;5014951;28;20082;-56
2023/04/20 05:08:26;;;;;;;30.63;16.30;;;19.30;57.70;;;;;;5009974;28;20038;-48
2023/04/20 05:10:52;;;;;;;32.42;15.73;;;19.30;57.70;;;;;;5012051;28;20113;-52
2023/04/20 05:13:17;;;;;;;23.88;12.57;;;19.30;57.80;;;;;;5009478;28;20104;-52
2023/04/20 05:15:42;;;;;;;35.17;13.15;;;19.20;58.00;;;;;;5015517;28;20038;-52
2023/04/20 05:18:08;;;;;;;23.67;13.45;;;19.20;58.30;;;;;;4966421;28;1312560;-51
2023/04/20 05:20:33;;;;;;;21.20;12.32;;;19.20;58.50;;;;;;5011418;28;20511;-51
2023/04/20 05:22:59;;;;;;;20.48;11.43;;;19.20;58.60;;;;;;5008721;28;20033;-54
2023/04/20 05:25:24;;;;;;;19.88;10.40;;;19.20;58.70;;;;;;5008963;28;20072;-48
2023/04/20 05:27:50;;;;;;;20.50;11.32;;;19.20;58.70;;;;;;5014511;28;20557;-50
2023/04/20 05:30:16;;;;;;;26.55;11.23;;;19.20;58.70;;;;;;5011821;28;20076;-55
2023/04/20 05:32:41;;;;;;;19.75;11.40;;;19.20;58.70;;;;;;5014073;28;20390;-49
2023/04/20 05:35:07;;;;;;;19.00;9.95;;;19.20;58.70;;;;;;5013728;28;20056;-51
2023/04/20 05:37:33;;;;;;;13.40;8.82;;;19.20;58.70;;;;;;5016449;28;20130;-48
2023/04/20 05:39:58;;;;;;;17.52;9.07;;;19.20;58.70;;;;;;5015502;28;20116;-55
2023/04/20 05:42:24;;;;;;;15.20;8.80;;;19.10;58.70;;;;;;5013502;28;20438;-54
2023/04/20 05:44:50;;;;;;;16.17;8.80;;;19.10;58.60;;;;;;5015721;28;20033;-48
2023/04/20 05:47:15;;;;;;;20.75;8.65;;;19.10;58.70;;;;;;5018122;28;21025;-47
2023/04/20 05:49:41;;;;;;;15.85;8.30;;;19.20;58.70;;;;;;5013743;28;20050;-51
2023/04/20 05:52:06;;;;;;;15.80;8.15;;;19.20;58.70;;;;;;5018197;28;20268;-55
2023/04/20 05:54:32;;;;;;;13.40;8.10;;;19.20;58.70;;;;;;5013950;28;20558;-49
2023/04/20 05:56:57;;;;;;;12.98;7.82;;;19.10;58.60;;;;;;5015606;28;20045;-50
2023/04/20 05:59:24;;;;;;;14.88;8.70;;;19.10;58.60;;;;;;5015649;28;20040;-50
2023/04/20 06:01:50;;;;;;;13.10;7.43;;;19.10;58.60;;;;;;5017231;28;20038;-49
2023/04/20 06:04:15;;;;;;;15.98;8.02;;;19.10;58.70;;;;;;5015877;28;20099;-49
2023/04/20 06:06:41;;;;;;;16.52;7.82;;;19.10;58.70;;;;;;5017814;28;20038;-51
2023/04/20 06:09:06;;;;;;;13.43;7.40;;;19.10;58.70;;;;;;5014676;28;20088;-53
2023/04/20 06:11:33;;;;;;;11.65;7.15;;;19.10;58.80;;;;;;5014577;28;20052;-50
2023/04/20 06:13:59;;;;;;;13.25;7.00;;;19.10;58.90;;;;;;5015679;28;20065;-51
2023/04/20 06:16:24;;;;;;;11.48;6.78;;;19.10;59.00;;;;;;5019152;28;20167;-51
2023/04/20 06:18:50;;;;;;;10.60;6.90;;;19.10;59.10;;;;;;5011633;28;20430;-53
2023/04/20 06:21:16;;;;;;;14.13;7.10;;;19.10;59.10;;;;;;5011071;28;20056;-54
2023/04/20 06:23:43;;;;;;;13.35;6.93;;;19.10;59.20;;;;;;5013275;28;20029;-52
2023/04/20 06:26:09;;;;;;;14.23;6.90;;;19.10;59.20;;;;;;5018967;28;20116;-51
2023/04/20 06:28:35;;;;;;;9.43;7.03;;;19.10;59.20;;;;;;5011658;28;20125;-48
2023/04/20 06:31:01;;;;;;;12.27;6.65;;;19.10;59.20;;;;;;5015262;28;20037;-49
2023/04/20 06:33:27;;;;;;;12.43;6.63;;;19.10;59.20;;;;;;5016869;28;20029;-49
2023/04/20 06:35:53;;;;;;;10.13;6.15;;;19.10;59.30;;;;;;5026016;28;20025;-50
2023/04/20 06:38:19;;;;;;;12.63;6.05;;;19.10;59.30;;;;;;5012276;28;20088;-50
2023/04/20 06:40:45;;;;;;;7.90;5.88;;;19.10;59.90;;;;;;5016500;28;20038;-54
2023/04/20 06:43:10;;;;;;;9.02;5.45;;;19.00;59.30;;;;;;5013396;28;20044;-53
2023/04/20 06:45:36;;;;;;;7.20;5.22;;;19.10;59.30;;;;;;5013608;28;20570;-55
2023/04/20 06:48:01;;;;;;;9.25;5.82;;;19.10;59.30;;;;;;5010352;28;20059;-51
2023/04/20 06:50:27;;;;;;;11.30;5.47;;;19.10;59.30;;;;;;5015278;28;20246;-53
2023/04/20 06:52:52;;;;;;;11.23;5.75;;;19.10;59.20;;;;;;5015735;28;20122;-50
2023/04/20 06:55:18;;;;;;;9.40;5.00;;;19.10;59.20;;;;;;5016624;28;20037;-58
2023/04/20 06:57:44;;;;;;;9.63;5.63;;;19.10;59.20;;;;;;5017638;28;20026;-56
2023/04/20 07:00:10;;;;;;;10.63;5.80;;;19.10;59.20;;;;;;5013162;28;20026;-54
2023/04/20 07:02:42;;;;;;;8.90;5.20;;;19.10;59.10;;;;;;5018345;28;20037;-47
2023/04/20 07:05:08;;;;;;;6.85;5.03;;;19.10;59.10;;;;;;5016657;28;20034;-51
2023/04/20 07:07:33;;;;;;;7.53;5.18;;;19.10;59.00;;;;;;5015386;28;20026;-49
2023/04/20 07:09:59;;;;;;;10.00;5.40;;;19.10;59.00;;;;;;5014086;28;20033;-58
2023/04/20 07:12:24;;;;;;;8.50;4.53;;;19.10;58.90;;;;;;5014310;28;20125;-56
2023/04/20 07:14:50;;;;;;;9.13;5.03;;;19.10;58.90;;;;;;5012318;28;20687;-50
2023/04/20 07:17:15;;;;;;;8.20;4.80;;;19.10;58.90;;;;;;5016487;28;20037;-49
2023/04/20 07:19:41;;;;;;;6.72;4.88;;;19.10;58.80;;;;;;5012859;28;20030;-53
2023/04/20 07:22:06;;;;;;;7.25;4.70;;;19.10;58.80;;;;;;5014960;28;20026;-52
2023/04/20 07:24:32;;;;;;;7.22;4.78;;;19.10;58.80;;;;;;5015970;28;20455;-46
2023/04/20 07:26:57;;;;;;;8.55;4.78;;;19.10;58.70;;;;;;5016121;28;20036;-51
2023/04/20 07:29:23;;;;;;;7.22;4.85;;;19.10;58.70;;;;;;5014182;28;20034;-56
2023/04/20 07:31:48;;;;;;;5.68;4.05;;;19.10;58.70;;;;;;5016694;28;20545;-47
2023/04/20 07:34:14;;;;;;;5.75;4.22;;;19.10;58.70;;;;;;5010470;28;20030;-50
2023/04/20 07:36:39;;;;;;;4.72;3.80;;;19.10;58.70;;;;;;5015047;28;20032;-58
2023/04/20 07:39:05;;;;;;;5.10;3.88;;;19.10;58.70;;;;;;5013328;28;20048;-47
2023/04/20 07:41:30;;;;;;;6.18;3.80;;;19.10;58.60;;;;;;5014106;28;20076;-51
2023/04/20 07:43:56;;;;;;;4.45;3.88;;;19.10;58.60;;;;;;5013256;28;20034;-55
2023/04/20 07:46:22;;;;;;;7.68;3.70;;;19.10;58.60;;;;;;5008590;28;20021;-51
2023/04/20 07:48:47;;;;;;;5.25;3.97;;;19.10;58.60;;;;;;5012579;28;20051;-52
2023/04/20 07:51:13;;;;;;;6.80;4.07;;;19.10;58.60;;;;;;5015658;28;20479;-54
2023/04/20 07:53:38;;;;;;;6.55;4.10;;;19.10;58.50;;;;;;5015078;28;20026;-50
2023/04/20 07:56:04;;;;;;;4.43;3.75;;;19.10;58.60;;;;;;5014722;28;20080;-55
2023/04/20 07:58:30;;;;;;;7.05;4.25;;;19.10;58.60;;;;;;5013751;28;20041;-58
2023/04/20 08:00:55;;;;;;;5.68;3.42;;;19.10;58.60;;;;;;5015620;28;20044;-54
2023/04/20 08:03:21;;;;;;;7.10;3.55;;;19.10;58.70;;;;;;5011022;28;20038;-51
2023/04/20 08:05:46;;;;;;;4.90;3.42;;;19.10;58.80;;;;;;5011253;28;20041;-57
2023/04/20 08:08:12;;;;;;;4.50;3.35;;;19.20;58.80;;;;;;5008709;28;20033;-51
2023/04/20 08:10:37;;;;;;;3.83;2.97;;;19.20;58.80;;;;;;5012032;28;20051;-47
2023/04/20 08:13:03;;;;;;;5.68;3.22;;;19.20;58.70;;;;;;5009378;28;20034;-54
2023/04/20 08:15:29;;;;;;;6.05;3.15;;;19.30;58.80;;;;;;5013509;28;20482;-58
2023/04/20 08:17:55;;;;;;;5.07;3.00;;;19.30;58.90;;;;;;5012166;28;20161;-56
2023/04/20 08:20:21;;;;;;;4.93;3.28;;;19.30;58.80;;;;;;5005615;28;20049;-53
2023/04/20 08:22:48;;;;;;;6.85;2.63;;;19.30;58.90;;;;;;5013493;28;20060;-52
2023/04/20 08:25:13;;;;;;;5.53;3.03;;;19.40;59.00;;;;;;5014716;28;20467;-52
2023/04/20 08:27:39;;;;;;;6.22;3.13;;;19.40;59.00;;;;;;5013722;28;20152;-55
2023/04/20 08:30:05;;;;;;;4.57;2.65;;;19.40;59.10;;;;;;5014362;28;20025;-48
2023/04/20 08:32:31;;;;;;;3.92;2.90;;;19.40;59.10;;;;;;5015543;28;20069;-52
2023/04/20 08:34:56;;;;;;;6.00;2.65;;;19.50;59.10;;;;;;5006340;28;20053;-55
2023/04/20 08:37:22;;;;;;;4.50;3.15;;;19.40;59.10;;;;;;5011675;28;20048;-54
2023/04/20 08:39:47;;;;;;;4.90;2.92;;;19.50;59.10;;;;;;5013461;28;20030;-55
2023/04/20 08:42:14;;;;;;;5.28;3.13;;;19.50;58.90;;;;;;5016802;28;20033;-55
2023/04/20 08:44:40;;;;;;;4.85;3.03;;;19.50;58.80;;;;;;5013186;28;20553;-58
2023/04/20 08:47:10;;;;;;;5.18;3.03;;;19.50;58.80;;;;;;5012014;28;20068;-54
2023/04/20 08:49:38;;;;;;;5.70;2.72;;;19.50;58.80;;;;;;5008131;28;20038;-49
2023/04/20 08:52:04;;;;;;;5.03;3.03;;;19.50;58.70;;;;;;5010885;28;20025;-57
2023/04/20 08:54:30;;;;;;;10.18;2.88;;;19.50;58.70;;;;;;5014255;28;21894;-56
2023/04/20 08:56:55;;;;;;;4.35;2.42;;;19.50;58.70;;;;;;5013737;28;20044;-50
2023/04/20 08:59:21;;;;;;;5.32;2.42;;;19.50;58.70;;;;;;5016004;28;20498;-50
2023/04/20 09:01:47;;;;;;;5.18;2.28;;;19.50;58.60;;;;;;5013636;28;20108;-55
2023/04/20 09:04:22;;;;;;;3.75;2.92;;;19.50;58.60;;;;;;5013925;28;20541;-56
2023/04/20 09:06:50;;;;;;;4.47;2.65;;;19.50;58.60;;;;;;5013401;28;20041;-50
2023/04/20 09:09:16;;;;;;;3.83;2.63;;;19.50;58.70;;;;;;5010966;28;20053;-52
2023/04/20 09:11:41;;;;;;;5.22;2.72;;;19.50;58.70;;;;;;5015621;28;20061;-54
2023/04/20 09:14:11;;;;;;;3.75;2.50;;;19.50;58.70;;;;;;5015437;28;20034;-54
2023/04/20 09:16:38;;;;;;;3.35;2.83;;;19.40;59.20;;;;;;5010376;28;20483;-56
2023/04/20 09:19:03;;;;;;;4.38;2.92;;;19.50;58.60;;;;;;5009195;28;20087;-49
2023/04/20 09:21:30;;;;;;;4.13;3.10;;;19.40;58.60;;;;;;5005610;28;20593;-52
2023/04/20 09:23:56;;;;;;;3.20;2.78;;;19.40;58.50;;;;;;5011874;28;20061;-48
2023/04/20 09:26:21;;;;;;;4.50;2.50;;;19.40;58.50;;;;;;5012501;28;20552;-47
2023/04/20 09:28:47;;;;;;;5.20;2.58;;;19.50;58.60;;;;;;5013995;28;20049;-55
2023/04/20 09:31:22;;;;;;;2.80;2.60;;;19.40;58.50;;;;;;5017109;28;20033;-46
2023/04/20 09:34:08;;;;;;;3.08;2.78;;;19.40;58.50;;;;;;5015368;28;20053;-47
2023/04/20 09:36:41;;;;;;;;;;;19.40;58.50;;;;;;5013921;28;20044;-51
2023/04/20 09:39:09;;;;;;;2.70;2.50;;;19.40;58.50;;;;;;5013562;28;20420;-46
2023/04/20 09:41:36;;;;;;;4.22;2.67;;;19.40;58.50;;;;;;5010200;28;20038;-47
2023/04/20 09:44:02;;;;;;;3.00;2.28;;;19.40;58.40;;;;;;5010997;28;20033;-55
2023/04/20 09:46:32;;;;;;;3.33;2.95;;;19.40;58.50;;;;;;5009218;28;20299;-59
2023/04/20 09:48:59;;;;;;;4.88;2.67;;;19.40;58.50;;;;;;5008924;28;20057;-54
2023/04/20 09:51:30;;;;;;;3.70;2.50;;;19.40;58.40;;;;;;5011877;28;20522;-52
2023/04/20 09:53:57;;;;;;;3.08;2.42;;;19.40;58.50;;;;;;5015464;28;20057;-58
2023/04/20 09:56:24;;;;;;;4.60;2.60;;;19.40;58.40;;;;;;5012670;28;20134;-46
2023/04/20 09:58:51;;;;;;;3.50;2.55;;;19.40;58.50;;;;;;5015088;28;20040;-56
2023/04/20 10:01:17;;;;;;;3.25;2.83;;;19.40;58.50;;;;;;5014264;28;20037;-50
2023/04/20 10:03:43;;;;;;;4.40;2.47;;;19.40;58.40;;;;;;5013898;28;20026;-51
2023/04/20 10:06:21;;;;;;;3.20;2.58;;;19.40;58.40;;;;;;5012392;28;20292;-47
2023/04/20 10:08:49;;;;;;;2.25;2.08;;;19.30;58.30;;;;;;5008068;28;20076;-51
2023/04/20 10:11:44;;;;;;;3.90;2.63;;;19.40;58.40;;;;;;5011013;28;20390;-52
2023/04/20 10:14:23;;;;;;;3.30;2.63;;;19.40;58.30;;;;;;5001204;28;20091;-50
2023/04/20 10:17:00;;;;;;;3.08;2.45;;;19.40;58.40;;;;;;5008164;28;20038;-49
2023/04/20 10:19:37;;;;;;;3.65;2.35;;;19.40;58.40;;;;;;5008616;28;20049;-48
2023/04/20 10:22:03;;;;;;;3.45;2.20;;;19.40;58.30;;;;;;5011795;28;20089;-53
2023/04/20 10:24:29;;;;;;;3.05;2.22;;;19.40;58.30;;;;;;5013276;28;20443;-48
2023/04/20 10:26:55;;;;;;;4.05;2.38;;;19.40;58.30;;;;;;5015886;28;20038;-54
2023/04/20 10:29:27;;;;;;;4.25;2.80;;;19.40;58.30;;;;;;5015466;28;20091;-54
2023/04/20 10:31:54;;;;;;;3.13;2.28;;;19.30;58.30;;;;;;5016547;28;20129;-47
2023/04/20 10:34:35;;;;;;;2.67;2.22;;;19.30;58.90;;;;;;5012705;28;20459;-49
2023/04/20 10:37:11;;;;;;;2.97;2.22;;;19.30;58.30;;;;;;5017746;28;20705;-50
2023/04/20 10:39:47;;;;;;;3.60;2.33;;;19.30;58.30;;;;;;5015556;28;20030;-56
2023/04/20 10:42:12;;;;;;;;;;;19.30;58.30;;;;;;5019228;28;20038;-48
2023/04/20 10:44:51;;;;;;;2.58;2.38;;;19.30;58.30;;;;;;5009964;28;19908;-46
2023/04/20 10:47:27;;;;;;;2.72;2.50;;;19.30;58.30;;;;;;5016905;28;20087;-48
2023/04/20 10:49:53;;;;;;;2.92;2.28;;;19.30;58.30;;;;;;5016279;28;20430;-49
2023/04/20 10:52:32;;;;;;;2.50;2.30;;;19.30;58.30;;;;;;5017366;28;20065;-49
2023/04/20 10:54:57;;;;;;;2.70;2.25;;;19.30;58.20;;;;;;5018816;28;20029;-47
2023/04/20 10:57:23;;;;;;;2.97;2.42;;;19.30;58.30;;;;;;5018897;28;20025;-48
2023/04/20 10:59:48;;;;;;;2.88;2.35;;;19.30;58.30;;;;;;5019529;28;20046;-49
2023/04/20 11:02:13;;;;;;;5.07;2.42;;;19.30;58.30;;;;;;5014890;28;20423;-51
2023/04/20 11:04:39;;;;;;;3.63;2.67;;;19.30;58.30;;;;;;5015387;28;20328;-50
2023/04/20 11:07:07;;;;;;;3.33;2.75;;;19.20;58.30;;;;;;5017356;28;20391;-50
2023/04/20 11:09:33;;;;;;;2.78;1.92;;;19.30;58.30;;;;;;5010374;28;20045;-47
2023/04/20 11:12:05;;;;;;;2.85;2.42;;;19.30;58.30;;;;;;5015054;28;20439;-48
2023/04/20 11:14:37;;;;;;;3.38;2.35;;;19.30;58.20;;;;;;5013628;28;20147;-54
2023/04/20 11:17:03;;;;;;;3.90;2.40;;;19.30;58.20;;;;;;5014675;28;20046;-57
2023/04/20 11:19:31;;;;;;;3.40;2.63;;;19.30;58.30;;;;;;5014700;28;20034;-51
2023/04/20 11:21:57;;;;;;;2.20;2.00;;;19.30;58.20;;;;;;5016538;28;20369;-51
2023/04/20 11:24:27;;;;;;;3.03;2.40;;;19.30;58.20;;;;;;5015631;28;20274;-54
2023/04/20 11:26:54;;;;;;;3.13;2.15;;;19.30;58.80;;;;;;5018028;28;20040;-48
2023/04/20 11:29:33;;;;;;;2.85;2.20;;;19.30;58.20;;;;;;5014393;28;20120;-49
2023/04/20 11:32:04;;;;;;;2.95;2.22;;;19.20;58.20;;;;;;5013259;28;20029;-54
2023/04/20 11:34:30;;;;;;;2.88;2.45;;;19.20;58.20;;;;;;5012589;28;20533;-48
2023/04/20 11:36:55;;;;;;;3.10;2.35;;;19.30;58.30;;;;;;5020085;28;20037;-50
2023/04/20 11:39:25;;;;;;;2.75;2.28;;;19.20;58.30;;;;;;5018249;28;20026;-55
2023/04/20 11:41:52;;;;;;;2.92;2.63;;;19.20;58.30;;;;;;5019488;28;20033;-57
2023/04/20 11:44:21;;;;;;;2.33;2.13;;;19.20;58.30;;;;;;5015040;28;20110;-55
2023/04/20 11:46:48;;;;;;;3.88;2.40;;;19.20;58.30;;;;;;5015258;28;20068;-47
2023/04/20 11:49:15;;;;;;;3.10;2.20;;;19.20;58.30;;;;;;5016543;28;20148;-56
2023/04/20 11:51:42;;;;;;;2.88;2.35;;;19.20;58.30;;;;;;5016786;28;20029;-45
2023/04/20 11:54:07;;;;;;;2.88;2.58;;;19.20;58.30;;;;;;5015976;28;20557;-52
2023/04/20 11:56:33;;;;;;;10.73;2.65;;;19.20;58.30;;;;;;5018202;28;20037;-48
2023/04/20 11:58:59;;;;;;;3.00;2.70;;;19.20;58.30;;;;;;5019173;28;20060;-49
2023/04/20 12:01:24;;;;;;;2.90;2.60;;;19.20;58.30;;;;;;5015260;28;20307;-47
2023/04/20 12:03:50;;;;;;;2.58;2.30;;;19.20;58.20;;;;;;5014196;28;20502;-54
2023/04/20 12:06:15;;;;;;;4.20;3.15;;;19.20;58.30;;;;;;5013587;28;20030;-53
2023/04/20 12:08:42;;;;;;;4.50;2.55;;;19.20;58.30;;;;;;5015290;28;20121;-49
2023/04/20 12:11:08;;;;;;;2.75;2.55;;;19.20;58.20;;;;;;5016681;28;20030;-51
2023/04/20 12:13:33;;;;;;;3.75;2.67;;;19.20;58.20;;;;;;5011563;28;20506;-49
2023/04/20 12:18:32;;;;;;;4.45;2.88;;;19.20;58.30;;;;;;5018942;28;20072;-50
2023/04/20 12:20:59;;;;;;;2.65;2.45;;;19.20;58.30;;;;;;5042276;28;20037;-54
2023/04/20 12:23:25;;;;;;;2.60;2.40;;;19.20;58.30;;;;;;5037355;28;20029;-54
2023/04/20 12:25:50;;;;;;;2.75;2.55;;;19.20;58.40;;;;;;5037843;28;20039;-50
2023/04/20 12:28:16;;;;;;;2.60;2.40;;;19.20;58.50;;;;;;5019142;28;20250;-54
2023/04/20 12:30:41;;;;;;;2.83;2.42;;;19.20;58.50;;;;;;5037057;28;20466;-52
2023/04/20 12:33:07;;;;;;;2.90;2.58;;;19.20;58.50;;;;;;5036723;28;20067;-52
2023/04/20 12:35:32;;;;;;;2.90;2.50;;;19.10;58.40;;;;;;5036502;28;20040;-49
2023/04/20 12:37:58;;;;;;;2.97;2.78;;;19.10;58.40;;;;;;5036711;28;20120;-46
2023/04/20 12:40:23;;;;;;;3.25;2.95;;;19.10;58.50;;;;;;5033702;28;20039;-49
2023/04/20 12:42:49;;;;;;;3.00;2.70;;;19.10;58.50;;;;;;5037745;28;20037;-58
2023/04/20 12:45:15;;;;;;;2.88;2.58;;;19.10;58.50;;;;;;5038373;28;20037;-49